createdAt,value
2017-06-22T00:02:00.589Z,18.90
2017-06-22T00:04:28.958Z,18.90
2017-06-22T00:06:58.055Z,18.90
2017-06-22T00:09:27.259Z,18.90
2017-06-22T00:11:55.630Z,18.80
2017-06-22T00:14:24.927Z,18.80
2017-06-22T00:16:54.006Z,18.80
2017-06-22T00:19:22.413Z,18.70
2017-06-22T00:21:51.496Z,18.70
2017-06-22T00:24:21.406Z,18.60
2017-06-22T00:26:50.495Z,18.60
2017-06-22T00:29:19.598Z,18.60
2017-06-22T00:31:48.799Z,18.60
2017-06-22T00:34:17.855Z,18.60
2017-06-22T00:36:46.263Z,18.50
2017-06-22T00:39:15.338Z,18.50
2017-06-22T00:41:43.847Z,18.40
2017-06-22T00:44:12.235Z,18.50
2017-06-22T00:46:40.599Z,18.40
2017-06-22T00:49:09.694Z,18.40
2017-06-22T00:51:38.830Z,18.40
2017-06-22T00:54:07.401Z,18.30
2017-06-22T00:56:35.701Z,18.40
2017-06-22T00:59:04.036Z,18.30
2017-06-22T01:01:32.517Z,18.30
2017-06-22T01:04:01.572Z,18.30
2017-06-22T01:06:30.014Z,18.20
2017-06-22T01:08:58.366Z,18.30
2017-06-22T01:11:27.451Z,18.20
2017-06-22T01:13:55.886Z,18.10
2017-06-22T01:16:24.197Z,18.20
2017-06-22T01:18:53.299Z,18.20
2017-06-22T01:21:22.404Z,18.10
2017-06-22T01:23:51.695Z,18.10
2017-06-22T01:26:20.024Z,18.10
2017-06-22T01:28:48.357Z,18.10
2017-06-22T01:31:17.442Z,18.00
2017-06-22T01:33:46.501Z,18.00
2017-06-22T01:36:14.914Z,18.00
2017-06-22T01:38:43.983Z,17.90
2017-06-22T01:41:12.387Z,17.90
2017-06-22T01:43:40.823Z,18.00
2017-06-22T01:46:09.155Z,17.90
2017-06-22T01:48:37.530Z,18.00
2017-06-22T01:51:06.002Z,18.00
2017-06-22T01:53:35.066Z,18.00
2017-06-22T01:56:03.479Z,17.90
2017-06-22T01:58:31.854Z,18.00
2017-06-22T02:01:00.923Z,18.00
2017-06-22T02:03:29.250Z,18.00
2017-06-22T02:05:58.300Z,18.00
2017-06-22T02:08:26.702Z,17.90
2017-06-22T02:10:55.768Z,17.90
2017-06-22T02:13:24.271Z,17.90
2017-06-22T02:15:53.352Z,17.90
2017-06-22T02:18:21.646Z,17.80
2017-06-22T02:20:49.982Z,17.80
2017-06-22T02:23:18.276Z,17.80
2017-06-22T02:25:46.793Z,17.90
2017-06-22T02:28:15.115Z,17.90
2017-06-22T02:30:44.253Z,17.90
2017-06-22T02:33:13.555Z,17.90
2017-06-22T02:35:41.878Z,17.80
2017-06-22T02:38:10.205Z,17.80
2017-06-22T02:40:39.431Z,17.80
2017-06-22T02:43:08.517Z,17.80
2017-06-22T02:45:37.696Z,17.90
2017-06-22T02:48:06.997Z,17.90
2017-06-22T02:50:36.104Z,18.00
2017-06-22T02:53:04.416Z,17.90
2017-06-22T02:55:32.741Z,18.00
2017-06-22T02:58:01.815Z,17.90
2017-06-22T03:00:30.920Z,17.90
2017-06-22T03:02:59.322Z,17.80
2017-06-22T03:05:27.765Z,17.90
2017-06-22T03:08:07.947Z,17.90
2017-06-22T03:10:36.415Z,17.90
2017-06-22T03:13:04.798Z,17.90
2017-06-22T03:15:33.930Z,17.80
2017-06-22T03:18:02.373Z,17.80
2017-06-22T03:20:31.555Z,17.80
2017-06-22T03:22:59.873Z,17.80
2017-06-22T03:25:28.166Z,17.80
2017-06-22T03:27:56.617Z,17.90
2017-06-22T03:30:26.059Z,17.80
2017-06-22T03:32:54.359Z,17.80
2017-06-22T03:35:22.775Z,17.80
2017-06-22T03:37:52.078Z,17.80
2017-06-22T03:40:20.541Z,17.80
2017-06-22T03:42:49.623Z,17.80
2017-06-22T03:45:18.939Z,17.80
2017-06-22T03:47:48.021Z,17.80
2017-06-22T03:50:16.323Z,17.80
2017-06-22T03:52:44.706Z,17.90
2017-06-22T03:55:13.780Z,18.10
2017-06-22T03:57:42.887Z,18.20
2017-06-22T04:00:11.982Z,18.30
2017-06-22T04:02:41.166Z,18.30
2017-06-22T04:05:10.243Z,18.40
2017-06-22T04:07:38.538Z,18.40
2017-06-22T04:10:07.629Z,18.60
2017-06-22T04:12:35.941Z,18.60
2017-06-22T04:15:04.499Z,18.60
2017-06-22T04:17:33.567Z,18.80
2017-06-22T04:20:02.671Z,18.80
2017-06-22T04:22:31.778Z,18.80
2017-06-22T04:25:00.263Z,18.70
2017-06-22T04:27:29.463Z,18.90
2017-06-22T04:29:57.771Z,18.80
2017-06-22T04:32:26.074Z,19.00
2017-06-22T04:34:54.491Z,19.00
2017-06-22T04:37:22.798Z,19.00
2017-06-22T04:39:51.430Z,19.10
2017-06-22T04:42:20.508Z,19.30
2017-06-22T04:44:49.635Z,19.40
2017-06-22T04:47:18.699Z,19.50
2017-06-22T04:49:47.107Z,19.40
2017-06-22T04:52:15.455Z,19.60
2017-06-22T04:54:43.876Z,19.60
2017-06-22T04:57:12.950Z,19.60
2017-06-22T04:59:41.418Z,19.50
2017-06-22T05:02:09.775Z,19.60
2017-06-22T05:04:38.204Z,19.60
2017-06-22T05:07:07.295Z,19.60
2017-06-22T05:09:36.375Z,19.60
2017-06-22T05:12:04.771Z,19.60
2017-06-22T05:14:33.117Z,19.60
2017-06-22T05:17:01.416Z,19.70
2017-06-22T05:19:30.937Z,19.80
2017-06-22T05:21:59.268Z,19.70
2017-06-22T05:24:28.399Z,19.90
2017-06-22T05:26:56.790Z,19.90
2017-06-22T05:29:25.163Z,20.00
2017-06-22T05:31:54.252Z,20.10
2017-06-22T05:34:23.353Z,20.30
2017-06-22T05:36:51.743Z,20.20
2017-06-22T05:39:20.072Z,20.40
2017-06-22T05:41:49.326Z,20.70
2017-06-22T05:44:17.693Z,20.60
2017-06-22T05:46:46.771Z,20.70
2017-06-22T05:49:15.856Z,20.70
2017-06-22T05:51:44.975Z,20.80
2017-06-22T05:54:13.443Z,20.80
2017-06-22T05:56:42.534Z,21.00
2017-06-22T05:59:11.848Z,21.10
2017-06-22T06:01:40.164Z,21.10
2017-06-22T06:04:08.495Z,21.30
2017-06-22T06:06:36.975Z,21.40
2017-06-22T06:09:05.274Z,21.60
2017-06-22T06:11:33.627Z,21.90
2017-06-22T06:14:02.443Z,22.30
2017-06-22T06:16:30.883Z,22.50
2017-06-22T06:18:59.275Z,22.80
2017-06-22T06:21:27.747Z,22.90
2017-06-22T06:23:56.559Z,23.00
2017-06-22T06:26:24.910Z,23.10
2017-06-22T06:28:54.119Z,23.20
2017-06-22T06:31:23.193Z,23.10
2017-06-22T06:33:52.511Z,23.00
2017-06-22T06:36:22.472Z,22.90
2017-06-22T06:38:50.804Z,22.90
2017-06-22T06:41:19.178Z,22.90
2017-06-22T06:43:47.579Z,22.90
2017-06-22T06:46:16.385Z,22.90
2017-06-22T06:48:44.687Z,23.00
2017-06-22T06:51:13.191Z,23.00
2017-06-22T06:53:42.382Z,23.10
2017-06-22T06:56:10.781Z,23.10
2017-06-22T06:58:39.111Z,23.20
2017-06-22T07:01:07.433Z,23.20
2017-06-22T07:03:36.518Z,23.40
2017-06-22T07:06:04.855Z,23.40
2017-06-22T07:08:33.376Z,23.60
2017-06-22T07:11:02.475Z,23.80
2017-06-22T07:13:30.911Z,23.80
2017-06-22T07:15:59.279Z,24.00
2017-06-22T07:18:27.586Z,24.20
2017-06-22T07:20:55.894Z,24.30
2017-06-22T07:23:24.273Z,24.50
2017-06-22T07:25:52.965Z,24.60
2017-06-22T07:28:21.337Z,24.70
2017-06-22T07:30:49.702Z,24.80
2017-06-22T07:33:18.814Z,25.00
2017-06-22T07:35:47.130Z,24.90
2017-06-22T07:38:15.889Z,25.00
2017-06-22T07:40:44.230Z,25.20
2017-06-22T07:43:13.136Z,25.20
2017-06-22T07:45:42.258Z,25.40
2017-06-22T07:48:10.607Z,25.40
2017-06-22T07:50:39.692Z,25.70
2017-06-22T07:53:09.309Z,25.80
2017-06-22T07:55:37.636Z,25.70
2017-06-22T07:58:05.963Z,25.80
2017-06-22T08:00:34.295Z,25.90
2017-06-22T08:03:02.639Z,26.10
2017-06-22T08:05:30.995Z,26.10
2017-06-22T08:07:59.372Z,26.20
2017-06-22T08:10:27.847Z,26.30
2017-06-22T08:12:56.942Z,26.50
2017-06-22T08:15:25.292Z,26.40
2017-06-22T08:17:53.618Z,26.50
2017-06-22T08:20:22.835Z,26.60
2017-06-22T08:22:51.172Z,26.70
2017-06-22T08:25:20.376Z,26.70
2017-06-22T08:27:48.851Z,26.70
2017-06-22T08:30:17.234Z,26.80
2017-06-22T08:32:45.614Z,26.90
2017-06-22T08:35:13.963Z,27.00
2017-06-22T08:37:42.358Z,27.20
2017-06-22T08:40:10.799Z,27.30
2017-06-22T08:42:39.106Z,27.40
2017-06-22T08:45:07.468Z,27.60
2017-06-22T08:47:35.880Z,27.70
2017-06-22T08:50:04.256Z,27.80
2017-06-22T08:52:33.352Z,28.00
2017-06-22T08:55:01.661Z,28.00
2017-06-22T08:57:30.203Z,28.10
2017-06-22T08:59:58.523Z,28.20
2017-06-22T09:02:26.830Z,28.30
2017-06-22T09:04:55.234Z,28.40
2017-06-22T09:07:24.307Z,28.70
2017-06-22T09:09:52.669Z,28.70
2017-06-22T09:12:20.979Z,28.90
2017-06-22T09:14:49.367Z,29.00
2017-06-22T09:17:18.441Z,29.40
2017-06-22T09:19:46.844Z,29.30
2017-06-22T09:22:15.912Z,29.60
2017-06-22T09:24:44.616Z,29.50
2017-06-22T09:27:12.955Z,29.80
2017-06-22T09:29:41.283Z,29.90
2017-06-22T09:32:09.856Z,30.10
2017-06-22T09:34:38.163Z,30.30
2017-06-22T09:37:06.723Z,30.80
2017-06-22T09:39:35.036Z,31.10
2017-06-22T09:42:03.589Z,31.60
2017-06-22T09:44:31.927Z,31.80
2017-06-22T09:47:00.222Z,31.90
2017-06-22T09:49:28.726Z,31.90
2017-06-22T09:51:57.033Z,31.90
2017-06-22T09:54:25.375Z,32.10
2017-06-22T09:56:53.873Z,32.20
2017-06-22T09:59:22.210Z,32.30
2017-06-22T10:01:51.303Z,32.60
2017-06-22T10:04:19.599Z,32.50
2017-06-22T10:06:48.275Z,32.60
2017-06-22T10:09:16.608Z,32.90
2017-06-22T10:11:45.118Z,33.00
2017-06-22T10:14:14.218Z,33.20
2017-06-22T10:16:43.320Z,33.20
2017-06-22T10:19:12.618Z,33.30
2017-06-22T10:21:40.938Z,33.20
2017-06-22T10:24:09.276Z,33.30
2017-06-22T10:26:37.646Z,33.50
2017-06-22T10:29:06.744Z,33.70
2017-06-22T10:31:35.354Z,33.70
2017-06-22T10:34:03.664Z,33.70
2017-06-22T10:36:32.227Z,34.00
2017-06-22T10:39:00.564Z,34.20
2017-06-22T10:41:28.943Z,34.20
2017-06-22T10:43:57.311Z,34.40
2017-06-22T10:46:26.849Z,34.50
2017-06-22T10:48:55.207Z,34.50
2017-06-22T10:51:24.409Z,34.40
2017-06-22T10:53:53.484Z,34.50
2017-06-22T10:56:22.707Z,34.50
2017-06-22T10:58:51.499Z,34.50
2017-06-22T11:01:19.871Z,34.70
2017-06-22T11:03:49.059Z,35.00
2017-06-22T11:06:17.862Z,35.00
2017-06-22T11:08:47.030Z,34.90
2017-06-22T11:11:15.343Z,34.80
2017-06-22T11:13:43.642Z,34.90
2017-06-22T11:16:11.999Z,35.00
2017-06-22T11:18:40.467Z,34.90
2017-06-22T11:21:09.567Z,35.40
2017-06-22T11:23:37.872Z,35.40
2017-06-22T11:26:06.249Z,35.80
2017-06-22T11:28:34.587Z,35.90
2017-06-22T11:31:02.928Z,36.30
2017-06-22T11:33:31.283Z,36.20
2017-06-22T11:35:59.598Z,36.30
2017-06-22T11:38:28.662Z,35.60
2017-06-22T11:40:57.006Z,35.50
2017-06-22T11:43:25.314Z,35.40
2017-06-22T11:45:53.628Z,35.60
2017-06-22T11:48:22.833Z,34.80
2017-06-22T11:50:51.907Z,32.70
2017-06-22T11:53:20.214Z,32.60
2017-06-22T11:55:49.315Z,29.90
2017-06-22T11:58:17.671Z,29.80
2017-06-22T12:00:46.878Z,27.60
2017-06-22T12:03:15.152Z,27.50
2017-06-22T12:05:43.464Z,26.80
2017-06-22T12:08:11.924Z,26.30
2017-06-22T12:10:40.242Z,25.20
2017-06-22T12:13:08.620Z,24.80
2017-06-22T12:15:37.042Z,24.70
2017-06-22T12:18:06.143Z,24.40
2017-06-22T12:20:34.482Z,24.30
2017-06-22T12:23:02.793Z,24.50
2017-06-22T12:25:31.168Z,24.70
2017-06-22T12:27:59.575Z,25.00
2017-06-22T12:30:27.883Z,25.10
2017-06-22T12:32:56.435Z,25.20
2017-06-22T12:35:24.804Z,25.00
2017-06-22T12:37:53.102Z,24.90
2017-06-22T12:40:21.432Z,24.80
2017-06-22T12:42:50.007Z,24.60
2017-06-22T12:45:18.408Z,24.40
2017-06-22T12:47:46.777Z,24.20
2017-06-22T12:50:15.865Z,24.00
2017-06-22T12:52:44.248Z,23.90
2017-06-22T12:55:13.322Z,23.60
2017-06-22T12:57:41.660Z,23.50
2017-06-22T13:00:10.198Z,23.30
2017-06-22T13:02:38.591Z,22.80
2017-06-22T13:05:07.139Z,22.20
2017-06-22T13:07:35.535Z,21.50
2017-06-22T13:10:04.604Z,20.50
2017-06-22T13:12:32.919Z,20.40
2017-06-22T13:15:01.391Z,20.30
2017-06-22T13:17:29.767Z,20.10
2017-06-22T13:19:58.134Z,20.20
2017-06-22T13:22:27.196Z,20.60
2017-06-22T13:24:55.551Z,20.50
2017-06-22T13:27:23.892Z,21.00
2017-06-22T13:29:52.267Z,21.50
2017-06-22T13:32:20.643Z,22.00
2017-06-22T13:34:49.021Z,22.60
2017-06-22T13:37:17.405Z,23.10
2017-06-22T13:39:46.527Z,23.80
2017-06-22T13:42:14.869Z,23.70
2017-06-22T13:44:43.979Z,23.70
2017-06-22T13:47:12.343Z,23.70
2017-06-22T13:49:40.650Z,23.70
2017-06-22T13:52:09.015Z,23.60
2017-06-22T13:54:37.319Z,23.70
2017-06-22T13:57:06.476Z,23.80
2017-06-22T13:59:34.835Z,24.20
2017-06-22T14:02:03.151Z,24.70
2017-06-22T14:04:31.505Z,25.20
2017-06-22T14:06:59.950Z,25.60
2017-06-22T14:09:28.278Z,25.60
2017-06-22T14:11:56.661Z,25.60
2017-06-22T14:14:25.116Z,25.60
2017-06-22T14:16:53.911Z,25.80
2017-06-22T14:19:23.012Z,26.10
2017-06-22T14:21:51.477Z,26.00
2017-06-22T14:24:19.811Z,26.20
2017-06-22T14:26:48.110Z,26.50
2017-06-22T14:29:17.310Z,27.20
2017-06-22T14:31:45.614Z,27.10
2017-06-22T14:34:13.986Z,27.40
2017-06-22T14:36:43.080Z,27.20
2017-06-22T14:39:11.564Z,27.10
2017-06-22T14:41:40.626Z,26.60
2017-06-22T14:44:09.031Z,26.60
2017-06-22T14:46:38.138Z,26.50
2017-06-22T14:49:07.221Z,26.40
2017-06-22T14:51:36.523Z,26.30
2017-06-22T14:54:04.859Z,26.30
2017-06-22T14:56:33.179Z,26.20
2017-06-22T14:59:01.566Z,26.10
2017-06-22T15:01:29.931Z,26.30
2017-06-22T15:03:59.136Z,26.40
2017-06-22T15:06:28.447Z,26.50
2017-06-22T15:08:57.116Z,26.50
2017-06-22T15:11:25.487Z,26.60
2017-06-22T15:13:54.546Z,26.90
2017-06-22T15:16:23.072Z,26.80
2017-06-22T15:18:51.442Z,26.80
2017-06-22T15:21:19.829Z,27.00
2017-06-22T15:23:48.159Z,27.00
2017-06-22T15:26:16.474Z,27.30
2017-06-22T15:28:45.668Z,27.30
2017-06-22T15:31:14.740Z,27.40
2017-06-22T15:33:43.450Z,27.40
2017-06-22T15:36:13.906Z,27.50
2017-06-22T15:38:42.650Z,27.90
2017-06-22T15:41:11.763Z,28.60
2017-06-22T15:43:41.194Z,29.00
2017-06-22T15:46:09.856Z,28.90
2017-06-22T15:48:38.232Z,29.30
2017-06-22T15:51:08.106Z,29.10
2017-06-22T15:53:36.444Z,29.10
2017-06-22T15:56:04.893Z,28.90
2017-06-22T15:58:33.980Z,28.70
2017-06-22T16:01:02.316Z,28.60
2017-06-22T16:03:30.676Z,28.50
2017-06-22T16:05:59.133Z,28.50
2017-06-22T16:08:28.218Z,28.50
2017-06-22T16:10:57.325Z,28.90
2017-06-22T16:13:26.515Z,29.40
2017-06-22T16:15:54.887Z,29.40
2017-06-22T16:18:23.267Z,30.20
2017-06-22T16:20:51.603Z,31.10
2017-06-22T16:23:20.023Z,32.10
2017-06-22T16:25:49.114Z,33.00
2017-06-22T16:28:18.220Z,32.70
2017-06-22T16:30:47.303Z,32.20
2017-06-22T16:33:15.683Z,32.10
2017-06-22T16:35:44.859Z,30.90
2017-06-22T16:38:13.232Z,30.80
2017-06-22T16:40:42.352Z,29.50
2017-06-22T16:43:11.864Z,29.00
2017-06-22T16:45:40.244Z,29.00
2017-06-22T16:48:08.581Z,28.40
2017-06-22T16:50:36.955Z,28.00
2017-06-22T16:53:05.235Z,27.60
2017-06-22T16:55:33.667Z,27.10
2017-06-22T16:58:02.733Z,26.70
2017-06-22T17:00:32.042Z,26.10
2017-06-22T17:03:00.419Z,26.00
2017-06-22T17:05:29.664Z,25.80
2017-06-22T17:07:58.002Z,25.80
2017-06-22T17:10:27.088Z,25.50
2017-06-22T17:12:56.175Z,25.30
2017-06-22T17:15:24.711Z,25.30
2017-06-22T17:17:53.219Z,25.20
2017-06-22T17:20:21.518Z,25.00
2017-06-22T17:22:50.746Z,24.80
2017-06-22T17:25:19.103Z,24.70
2017-06-22T17:27:48.255Z,24.50
2017-06-22T17:30:16.593Z,24.40
2017-06-22T17:32:45.642Z,24.40
2017-06-22T17:35:14.789Z,24.40
2017-06-22T17:37:43.139Z,24.30
2017-06-22T17:40:12.544Z,24.30
2017-06-22T17:42:40.852Z,24.20
2017-06-22T17:45:09.195Z,24.30
2017-06-22T17:47:37.674Z,24.20
2017-06-22T17:50:06.060Z,24.20
2017-06-22T17:52:34.543Z,24.20
2017-06-22T17:55:03.727Z,24.20
2017-06-22T17:57:32.855Z,24.10
2017-06-22T18:00:01.207Z,24.10
2017-06-22T18:02:30.303Z,23.60
2017-06-22T18:04:58.986Z,23.60
2017-06-22T18:07:28.084Z,23.20
2017-06-22T18:09:57.180Z,23.10
2017-06-22T18:12:26.380Z,23.00
2017-06-22T18:14:55.591Z,23.00
2017-06-22T18:17:24.482Z,22.90
2017-06-22T18:19:52.841Z,22.70
2017-06-22T18:22:21.311Z,22.50
2017-06-22T18:24:50.418Z,22.30
2017-06-22T18:27:19.037Z,22.20
2017-06-22T18:29:47.374Z,22.20
2017-06-22T18:32:16.466Z,22.00
2017-06-22T18:34:44.918Z,22.00
2017-06-22T18:37:13.238Z,22.00
2017-06-22T18:39:41.562Z,22.10
2017-06-22T18:42:09.867Z,22.00
2017-06-22T18:44:38.976Z,22.00
2017-06-22T18:47:08.036Z,22.00
2017-06-22T18:49:36.443Z,22.00
2017-06-22T18:52:05.553Z,22.00
2017-06-22T18:54:34.842Z,22.00
2017-06-22T18:57:03.920Z,22.00
2017-06-22T18:59:32.228Z,21.90
2017-06-22T19:02:00.688Z,22.10
2017-06-22T19:04:29.015Z,22.10
2017-06-22T19:07:00.268Z,22.00
2017-06-22T19:09:29.008Z,22.00
2017-06-22T19:11:57.379Z,21.90
2017-06-22T19:14:26.455Z,21.80
2017-06-22T19:16:54.955Z,21.80
2017-06-22T19:19:24.032Z,21.60
2017-06-22T19:21:52.432Z,21.50
2017-06-22T19:24:20.938Z,21.40
2017-06-22T19:26:49.246Z,20.90
2017-06-22T19:29:17.663Z,20.50
2017-06-22T19:31:46.760Z,19.60
2017-06-22T19:34:15.963Z,19.50
2017-06-22T19:36:44.298Z,19.40
2017-06-22T19:39:12.835Z,19.40
2017-06-22T19:41:41.163Z,19.40
2017-06-22T19:44:09.627Z,19.50
2017-06-22T19:46:38.035Z,19.60
2017-06-22T19:49:06.327Z,19.70
2017-06-22T19:51:35.414Z,19.80
2017-06-22T19:54:03.749Z,19.80
2017-06-22T19:56:32.112Z,19.80
2017-06-22T19:59:00.460Z,19.80
2017-06-22T20:01:28.791Z,19.70
2017-06-22T20:03:57.097Z,19.50
2017-06-22T20:06:25.705Z,19.40
2017-06-22T20:08:54.015Z,19.40
2017-06-22T20:11:22.326Z,19.30
2017-06-22T20:13:50.668Z,19.30
2017-06-22T20:16:19.001Z,19.20
2017-06-22T20:18:48.085Z,19.10
2017-06-22T20:21:16.378Z,19.00
2017-06-22T20:23:45.490Z,19.00
2017-06-22T20:26:13.835Z,18.90
2017-06-22T20:28:42.430Z,18.90
2017-06-22T20:31:10.791Z,18.90
2017-06-22T20:33:40.006Z,18.80
2017-06-22T20:36:08.355Z,18.70
2017-06-22T20:38:37.451Z,18.80
2017-06-22T20:41:06.555Z,18.80
2017-06-22T20:43:34.982Z,18.70
2017-06-22T20:46:03.326Z,18.80
2017-06-22T20:48:32.395Z,18.80
2017-06-22T20:51:01.096Z,18.70
2017-06-22T20:53:29.539Z,18.80
2017-06-22T20:55:57.850Z,18.70
2017-06-22T20:58:27.337Z,18.80
2017-06-22T21:00:55.631Z,18.80
2017-06-22T21:03:24.339Z,18.80
2017-06-22T21:05:52.652Z,18.90
2017-06-22T21:08:20.971Z,18.90
2017-06-22T21:10:50.071Z,19.10
2017-06-22T21:13:19.139Z,19.10
2017-06-22T21:15:47.851Z,19.10
2017-06-22T21:18:16.181Z,19.20
2017-06-22T21:20:44.482Z,19.20
2017-06-22T21:23:12.818Z,19.30
2017-06-22T21:25:41.137Z,19.30
2017-06-22T21:28:10.253Z,19.40
2017-06-22T21:30:39.369Z,19.40
2017-06-22T21:33:07.699Z,19.40
2017-06-22T21:35:35.991Z,19.50
2017-06-22T21:38:05.306Z,19.50
2017-06-22T21:40:34.368Z,19.50
2017-06-22T21:43:04.408Z,19.60
2017-06-22T21:45:32.781Z,19.50
2017-06-22T21:48:01.119Z,19.60
2017-06-22T21:50:29.464Z,19.50
2017-06-22T21:52:57.800Z,19.60
2017-06-22T21:55:26.899Z,19.50
2017-06-22T21:57:55.193Z,19.40
2017-06-22T22:00:23.520Z,19.40
2017-06-22T22:02:51.826Z,19.50
2017-06-22T22:05:20.148Z,19.50
2017-06-22T22:07:48.768Z,19.50
2017-06-22T22:10:17.620Z,19.50
2017-06-22T22:12:46.014Z,19.50
2017-06-22T22:15:14.367Z,19.50
2017-06-22T22:17:42.787Z,19.50
2017-06-22T22:20:11.199Z,19.60
2017-06-22T22:22:39.564Z,19.60
2017-06-22T22:25:08.027Z,19.60
2017-06-22T22:27:36.356Z,19.70
2017-06-22T22:30:05.443Z,19.70
2017-06-22T22:32:33.759Z,19.60
2017-06-22T22:35:02.099Z,19.70
2017-06-22T22:37:30.447Z,19.70
2017-06-22T22:39:58.890Z,19.70
2017-06-22T22:42:27.226Z,19.70
2017-06-22T22:44:56.298Z,19.60
2017-06-22T22:47:24.611Z,19.60
2017-06-22T22:49:52.923Z,19.60
2017-06-22T22:52:21.346Z,19.60
2017-06-22T22:54:49.662Z,19.50
2017-06-22T22:57:18.194Z,19.60
2017-06-22T22:59:47.273Z,19.60
2017-06-22T23:02:15.982Z,19.60
2017-06-22T23:04:45.054Z,19.60
2017-06-22T23:07:13.570Z,19.60
2017-06-22T23:09:41.942Z,19.70
2017-06-22T23:12:10.258Z,19.60
2017-06-22T23:14:38.705Z,19.60
2017-06-22T23:17:07.766Z,19.50
2017-06-22T23:19:36.273Z,19.50
2017-06-22T23:22:05.351Z,19.50
2017-06-22T23:24:34.472Z,19.60
2017-06-22T23:27:02.939Z,19.50
2017-06-22T23:29:32.045Z,19.50
2017-06-22T23:32:00.420Z,19.50
2017-06-22T23:34:28.800Z,19.50
2017-06-22T23:36:57.290Z,19.40
2017-06-22T23:39:26.362Z,19.10
2017-06-22T23:41:54.751Z,19.00
2017-06-22T23:44:23.122Z,19.00
2017-06-22T23:46:51.439Z,18.90
2017-06-22T23:49:19.887Z,18.80
2017-06-22T23:51:48.946Z,18.70
2017-06-22T23:54:17.656Z,18.70
2017-06-22T23:56:46.735Z,18.70
2017-06-22T23:59:15.139Z,18.60
